GRZ504 Details

Departure: Fairbanks International Airport (PAFA)
Arrival: Ted Stevens Anchorage International Airport (PANC) at N/A
Route: PUYVO2 PUYVO KROTO4
Notes:


Current Weather Information
PAFA 231253Z 00000KT 10SM SCT180 M05/M08 A2964 RMK AO2 SLP047 T10501078
PANC 231253Z 23003KT 10SM BKN065 BKN075 03/00 A2936 RMK AO2 RAE50 SLP943 P0000 T00330000